createdAt,value
2023-01-19T00:01:39.146Z,-6.36
2023-01-19T00:04:06.587Z,-6.37
2023-01-19T00:06:33.490Z,-6.44
2023-01-19T00:09:00.089Z,-6.61
2023-01-19T00:11:26.659Z,-6.64
2023-01-19T00:13:53.652Z,-6.46
2023-01-19T00:16:22.388Z,-6.64
2023-01-19T00:18:50.839Z,-6.64
2023-01-19T00:21:17.627Z,-6.52
2023-01-19T00:23:47.316Z,-6.69
2023-01-19T00:26:17.111Z,-7.01
2023-01-19T00:28:44.300Z,-6.46
2023-01-19T00:31:11.308Z,-6.41
2023-01-19T00:33:37.924Z,-6.31
2023-01-19T00:36:04.890Z,-6.03
2023-01-19T00:38:31.496Z,-5.72
2023-01-19T00:40:58.090Z,-5.47
2023-01-19T00:43:24.704Z,-4.93
2023-01-19T00:45:51.508Z,-5.14
2023-01-19T00:48:18.112Z,-5.28
2023-01-19T00:50:44.733Z,-5.36
2023-01-19T00:53:11.358Z,-5.38
2023-01-19T00:55:37.959Z,-5.22
2023-01-19T00:58:04.790Z,-5.61
2023-01-19T01:00:31.455Z,-5.35
2023-01-19T01:02:58.518Z,-5.19
2023-01-19T01:05:25.567Z,-5.31
2023-01-19T01:07:52.189Z,-5.61
2023-01-19T01:10:19.754Z,-5.43
2023-01-19T01:12:56.037Z,-5.28
2023-01-19T01:15:26.486Z,-5.35
2023-01-19T01:17:53.234Z,-4.92
2023-01-19T01:20:22.528Z,-5.03
2023-01-19T01:22:50.545Z,-5.69
2023-01-19T01:25:18.727Z,-5.95
2023-01-19T01:27:45.374Z,-5.56
2023-01-19T01:30:13.010Z,-5.87
2023-01-19T01:32:39.660Z,-5.72
2023-01-19T01:35:06.731Z,-6.04
2023-01-19T01:37:33.369Z,-5.93
2023-01-19T01:39:59.971Z,-6.17
2023-01-19T01:42:30.232Z,-6.67
2023-01-19T01:45:01.093Z,-6.12
2023-01-19T01:47:44.493Z,-6.37
2023-01-19T01:50:33.551Z,-6.47
2023-01-19T01:53:08.244Z,-6.26
2023-01-19T01:55:41.647Z,-6.39
2023-01-19T01:58:08.310Z,-5.73
2023-01-19T02:00:53.678Z,-6.80
2023-01-19T02:03:22.334Z,-6.78
2023-01-19T02:05:49.025Z,-6.20
2023-01-19T02:08:51.676Z,-6.65
2023-01-19T02:11:36.999Z,-6.34
2023-01-19T02:14:04.779Z,-6.08
2023-01-19T02:16:31.389Z,-5.93
2023-01-19T02:18:57.987Z,-5.68
2023-01-19T02:21:33.314Z,-5.58
2023-01-19T02:24:01.589Z,-5.61
2023-01-19T02:26:37.607Z,-5.55
2023-01-19T02:29:08.368Z,-5.78
2023-01-19T02:31:35.505Z,-5.53
2023-01-19T02:34:02.137Z,-5.55
2023-01-19T02:36:50.453Z,-5.15
2023-01-19T02:39:19.613Z,-5.07
2023-01-19T02:41:52.657Z,-5.40
2023-01-19T02:44:19.282Z,-5.64
2023-01-19T02:46:45.894Z,-5.61
2023-01-19T02:49:13.632Z,-5.83
2023-01-19T02:51:40.331Z,-5.76
2023-01-19T02:54:30.983Z,-5.75
2023-01-19T02:57:10.853Z,-5.98
2023-01-19T02:59:59.547Z,-5.89
2023-01-19T03:02:36.004Z,-5.58
2023-01-19T03:05:17.276Z,-5.50
2023-01-19T03:07:53.153Z,-5.72
2023-01-19T03:10:29.417Z,-6.04
2023-01-19T03:13:10.478Z,-6.04
2023-01-19T03:15:55.809Z,-6.02
2023-01-19T03:18:24.619Z,-6.36
2023-01-19T03:20:51.795Z,-6.32
2023-01-19T03:23:18.445Z,-6.39
2023-01-19T03:25:45.552Z,-6.82
2023-01-19T03:28:12.127Z,-6.72
2023-01-19T03:30:40.524Z,-6.51
2023-01-19T03:33:13.494Z,-6.74
2023-01-19T03:35:43.338Z,-6.58
2023-01-19T03:38:12.634Z,-6.60
2023-01-19T03:40:39.258Z,-6.87
2023-01-19T03:43:05.895Z,-6.90
2023-01-19T03:45:32.896Z,-6.83
2023-01-19T03:47:59.942Z,-6.32
2023-01-19T03:50:28.266Z,-6.40
2023-01-19T03:53:21.823Z,-7.02
2023-01-19T03:55:48.722Z,-6.72
2023-01-19T03:58:15.310Z,-6.58
2023-01-19T04:00:42.147Z,-6.53
2023-01-19T04:03:13.559Z,-6.60
2023-01-19T04:05:40.199Z,-6.80
2023-01-19T04:08:06.877Z,-6.68
2023-01-19T04:10:33.516Z,-6.78
2023-01-19T04:13:01.399Z,-6.66
2023-01-19T04:15:28.732Z,-6.73
2023-01-19T04:17:57.447Z,-6.69
2023-01-19T04:20:24.374Z,-6.16
2023-01-19T04:22:50.984Z,-6.43
2023-01-19T04:25:17.580Z,-6.27
2023-01-19T04:27:44.197Z,-5.95
2023-01-19T04:30:11.254Z,-6.19
2023-01-19T04:32:37.883Z,-5.84
2023-01-19T04:35:04.974Z,-6.08
2023-01-19T04:37:31.596Z,-5.91
2023-01-19T04:39:58.203Z,-5.60
2023-01-19T04:42:24.900Z,-5.36
2023-01-19T04:44:52.593Z,-5.22
2023-01-19T04:47:19.653Z,-5.81
2023-01-19T04:49:46.259Z,-5.80
2023-01-19T04:52:12.844Z,-5.83
2023-01-19T04:54:39.443Z,-6.45
2023-01-19T04:57:06.108Z,-6.54
2023-01-19T04:59:32.700Z,-6.43
2023-01-19T05:01:59.392Z,-6.05
2023-01-19T05:04:26.495Z,-6.26
2023-01-19T05:06:54.305Z,-6.17
2023-01-19T05:09:20.925Z,-6.36
2023-01-19T05:11:47.560Z,-6.59
2023-01-19T05:14:14.215Z,-6.28
2023-01-19T05:16:40.861Z,-6.41
2023-01-19T05:19:07.484Z,-6.32
2023-01-19T05:21:34.133Z,-6.43
2023-01-19T05:24:00.858Z,-6.29
2023-01-19T05:26:27.549Z,-6.32
2023-01-19T05:28:54.199Z,-6.10
2023-01-19T05:31:20.924Z,-5.74
2023-01-19T05:33:49.124Z,-5.85
2023-01-19T05:36:15.961Z,-5.48
2023-01-19T05:38:42.546Z,-5.28
2023-01-19T05:41:09.171Z,-5.29
2023-01-19T05:43:35.792Z,-5.35
2023-01-19T05:46:04.452Z,-5.23
2023-01-19T05:48:31.150Z,-5.36
2023-01-19T05:50:58.929Z,-5.47
2023-01-19T05:53:25.771Z,-5.68
2023-01-19T05:55:52.411Z,-5.94
2023-01-19T05:58:19.051Z,-5.57
2023-01-19T06:00:45.709Z,-5.68
2023-01-19T06:03:12.528Z,-5.51
2023-01-19T06:05:39.520Z,-5.74
2023-01-19T06:08:06.220Z,-5.59
2023-01-19T06:10:32.911Z,-5.98
2023-01-19T06:12:59.877Z,-6.46
2023-01-19T06:15:26.710Z,-6.01
2023-01-19T06:17:53.321Z,-5.63
2023-01-19T06:20:19.919Z,-6.05
2023-01-19T06:22:47.716Z,-5.80
2023-01-19T06:25:14.425Z,-5.83
2023-01-19T06:27:45.151Z,-5.68
2023-01-19T06:30:12.816Z,-5.31
2023-01-19T06:32:39.477Z,-5.87
2023-01-19T06:35:07.836Z,-5.78
2023-01-19T06:37:34.603Z,-5.54
2023-01-19T06:40:01.201Z,-5.26
2023-01-19T06:42:27.827Z,-5.37
2023-01-19T06:44:54.452Z,-5.15
2023-01-19T06:47:21.057Z,-4.88
2023-01-19T06:49:48.200Z,-5.15
2023-01-19T06:52:16.771Z,-5.03
2023-01-19T06:54:45.476Z,-4.94
2023-01-19T06:57:12.563Z,-4.85
2023-01-19T06:59:39.236Z,-4.97
2023-01-19T07:02:27.964Z,-5.02
2023-01-19T07:04:52.529Z,-5.05
2023-01-19T07:07:19.134Z,-4.56
2023-01-19T07:09:46.854Z,-4.56
2023-01-19T07:12:14.726Z,-4.67
2023-01-19T07:14:41.691Z,-4.82
2023-01-19T07:17:08.756Z,-4.78
2023-01-19T07:19:35.760Z,-4.51
2023-01-19T07:22:03.206Z,-4.35
2023-01-19T07:24:34.210Z,-4.45
2023-01-19T07:27:01.054Z,-4.34
2023-01-19T07:29:27.664Z,-4.38
2023-01-19T07:31:54.766Z,-4.21
2023-01-19T07:34:21.668Z,-4.14
2023-01-19T07:36:48.392Z,-3.98
2023-01-19T07:39:15.022Z,-4.76
2023-01-19T07:41:41.805Z,-4.28
2023-01-19T07:44:08.841Z,-4.20
2023-01-19T07:46:35.512Z,-4.48
2023-01-19T07:49:02.161Z,-4.31
2023-01-19T07:51:28.797Z,-4.35
2023-01-19T07:53:55.411Z,-4.00
2023-01-19T07:56:23.394Z,-3.97
2023-01-19T07:58:52.311Z,-4.20
2023-01-19T08:01:18.989Z,-4.51
2023-01-19T08:03:47.745Z,-4.32
2023-01-19T08:06:22.055Z,-4.04
2023-01-19T08:08:48.705Z,-3.83
2023-01-19T08:11:15.379Z,-4.24
2023-01-19T08:13:42.235Z,-3.63
2023-01-19T08:16:08.937Z,-3.67
2023-01-19T08:18:35.561Z,-3.52
2023-01-19T08:21:02.277Z,-3.99
2023-01-19T08:23:28.958Z,-3.38
2023-01-19T08:25:55.637Z,-3.32
2023-01-19T08:28:22.720Z,-3.31
2023-01-19T08:30:54.495Z,-3.65
2023-01-19T08:33:23.100Z,-3.21
2023-01-19T08:35:51.858Z,-3.01
2023-01-19T08:38:18.486Z,-3.39
2023-01-19T08:40:45.247Z,-3.10
2023-01-19T08:43:13.657Z,-2.98
2023-01-19T08:45:42.369Z,-2.97
2023-01-19T08:48:09.946Z,-2.73
2023-01-19T08:50:36.548Z,-2.61
2023-01-19T08:53:06.932Z,-2.78
2023-01-19T08:55:34.495Z,-2.82
2023-01-19T08:58:02.134Z,-2.57
2023-01-19T09:00:31.457Z,-2.32
2023-01-19T09:02:58.232Z,-2.47
2023-01-19T09:05:24.834Z,-2.54
2023-01-19T09:07:51.782Z,-2.25
2023-01-19T09:14:30.241Z,-2.22
2023-01-19T09:16:56.837Z,-2.14
2023-01-19T09:19:23.424Z,-2.21
2023-01-19T09:21:50.865Z,-2.07
2023-01-19T09:24:17.533Z,-1.95
2023-01-19T09:26:44.216Z,-1.86
2023-01-19T09:29:10.837Z,-1.71
2023-01-19T09:31:37.507Z,-1.93
2023-01-19T09:34:04.120Z,-1.88
2023-01-19T09:36:31.017Z,-1.76
2023-01-19T09:38:57.622Z,-1.72
2023-01-19T09:41:26.049Z,-1.57
2023-01-19T09:48:24.658Z,-1.68
2023-01-19T09:50:51.206Z,-1.53
2023-01-19T09:53:33.073Z,-1.53
2023-01-19T09:55:59.636Z,-1.34
2023-01-19T09:58:26.194Z,-1.23
2023-01-19T10:01:04.272Z,-1.16
2023-01-19T10:03:31.011Z,-1.14
2023-01-19T10:06:04.852Z,-1.12
2023-01-19T10:08:37.109Z,-0.82
2023-01-19T10:11:03.719Z,-0.52
2023-01-19T10:13:48.976Z,-0.41
2023-01-19T10:16:39.804Z,-0.26
2023-01-19T10:19:23.485Z,-0.17
2023-01-19T10:21:50.252Z,-0.34
2023-01-19T10:24:21.359Z,-0.16
2023-01-19T10:26:54.345Z,-0.39
2023-01-19T10:29:36.355Z,0.04
2023-01-19T10:32:11.836Z,0.16
2023-01-19T10:34:38.481Z,0.67
2023-01-19T10:37:13.896Z,0.25
2023-01-19T10:39:40.595Z,0.05
2023-01-19T10:42:10.452Z,-0.25
2023-01-19T10:44:37.220Z,-0.43
2023-01-19T10:47:04.902Z,-0.63
2023-01-19T10:49:42.706Z,-0.69
2023-01-19T10:52:28.963Z,-0.74
2023-01-19T10:54:55.689Z,-0.96
2023-01-19T10:57:43.522Z,-0.96
2023-01-19T11:00:37.913Z,-0.97
2023-01-19T11:03:24.303Z,-0.72
2023-01-19T11:05:50.960Z,-0.74
2023-01-19T11:08:28.799Z,-0.88
2023-01-19T11:10:59.928Z,-0.73
2023-01-19T11:13:26.608Z,-0.63
2023-01-19T11:16:19.801Z,-0.67
2023-01-19T11:18:47.211Z,-0.83
2023-01-19T11:21:14.833Z,-0.85
2023-01-19T11:23:45.316Z,-0.77
2023-01-19T11:26:24.202Z,-0.65
2023-01-19T11:28:51.498Z,-0.38
2023-01-19T11:31:20.359Z,-0.72
2023-01-19T11:33:48.405Z,-0.86
2023-01-19T11:36:27.446Z,-0.81
2023-01-19T11:38:55.439Z,-0.75
2023-01-19T11:41:33.854Z,-0.74
2023-01-19T11:44:22.583Z,-0.63
2023-01-19T11:46:53.600Z,-0.75
2023-01-19T11:49:33.303Z,-0.77
2023-01-19T11:52:16.596Z,-0.94
2023-01-19T11:55:07.126Z,-1.00
2023-01-19T11:57:33.880Z,-0.77
2023-01-19T12:00:03.544Z,-0.65
2023-01-19T12:02:45.011Z,-0.68
2023-01-19T12:05:15.116Z,-0.77
2023-01-19T12:07:41.722Z,-0.78
2023-01-19T12:10:17.526Z,-0.84
2023-01-19T12:12:44.193Z,-0.90
2023-01-19T12:15:37.235Z,-0.74
2023-01-19T12:18:05.428Z,-0.71
2023-01-19T12:20:38.455Z,-0.77
2023-01-19T12:23:11.228Z,-0.68
2023-01-19T12:25:55.004Z,-0.70
2023-01-19T12:28:24.791Z,-0.76
2023-01-19T12:30:52.198Z,-0.85
2023-01-19T12:33:22.536Z,-0.90
2023-01-19T12:36:00.792Z,-0.68
2023-01-19T12:39:03.883Z,-0.83
2023-01-19T12:41:34.331Z,-0.85
2023-01-19T12:44:09.928Z,-0.76
2023-01-19T12:47:08.080Z,-0.65
2023-01-19T12:49:49.895Z,-0.71
2023-01-19T12:52:27.223Z,-0.62
2023-01-19T12:54:59.513Z,-0.64
2023-01-19T12:57:38.101Z,-0.79
2023-01-19T13:00:27.704Z,-0.99
2023-01-19T13:03:04.465Z,-0.90
2023-01-19T13:05:32.658Z,-0.99
2023-01-19T13:08:03.051Z,-0.98
2023-01-19T13:10:54.402Z,-0.95
2023-01-19T13:13:24.560Z,-1.04
2023-01-19T13:15:51.894Z,-0.98
2023-01-19T13:18:23.845Z,-0.99
2023-01-19T13:20:56.928Z,-1.01
2023-01-19T13:23:25.571Z,-0.84
2023-01-19T13:26:01.985Z,-0.89
2023-01-19T13:28:33.026Z,-0.68
2023-01-19T13:31:00.119Z,-0.73
2023-01-19T13:33:27.969Z,-0.82
2023-01-19T13:35:56.547Z,-0.87
2023-01-19T13:38:23.835Z,-0.70
2023-01-19T13:40:50.572Z,-0.66
2023-01-19T13:43:21.033Z,-0.72
2023-01-19T13:45:51.152Z,-0.60
2023-01-19T13:48:22.174Z,-0.82
2023-01-19T13:51:18.167Z,-0.68
2023-01-19T13:53:57.794Z,-0.74
2023-01-19T13:56:28.912Z,-0.61
2023-01-19T13:59:02.478Z,-0.54
2023-01-19T14:01:31.285Z,-0.75
2023-01-19T14:03:59.058Z,-0.41
2023-01-19T14:06:35.393Z,-0.60
2023-01-19T14:09:20.240Z,-0.68
2023-01-19T14:11:48.734Z,-0.60
2023-01-19T14:14:25.039Z,-0.54
2023-01-19T14:16:51.725Z,-0.38
2023-01-19T14:19:18.340Z,-0.43
2023-01-19T14:21:46.118Z,-0.40
2023-01-19T14:24:19.486Z,-0.50
2023-01-19T14:26:48.752Z,-0.51
2023-01-19T14:29:18.498Z,-0.47
2023-01-19T14:31:46.205Z,-0.40
2023-01-19T14:34:35.462Z,-0.46
2023-01-19T14:37:03.276Z,-0.54
2023-01-19T14:39:32.637Z,-0.46
2023-01-19T14:42:00.935Z,-0.33
2023-01-19T14:44:39.748Z,-0.44
2023-01-19T14:47:07.211Z,-0.40
2023-01-19T14:49:38.560Z,-0.53
2023-01-19T14:52:07.313Z,-0.52
2023-01-19T14:54:38.246Z,-0.30
2023-01-19T14:57:04.903Z,-0.14
2023-01-19T14:59:32.028Z,-0.45
2023-01-19T15:01:59.889Z,-0.45
2023-01-19T15:04:26.668Z,-0.49
2023-01-19T15:06:53.331Z,-0.59
2023-01-19T15:09:19.918Z,-0.50
2023-01-19T15:11:47.437Z,-0.47
2023-01-19T15:14:14.494Z,-0.55
2023-01-19T15:16:41.214Z,-0.58
2023-01-19T15:19:14.885Z,-0.67
2023-01-19T15:21:42.318Z,-0.75
2023-01-19T15:24:10.558Z,-0.66
2023-01-19T15:26:38.690Z,-0.70
2023-01-19T15:29:25.856Z,-0.66
2023-01-19T15:31:52.586Z,-0.62
2023-01-19T15:34:19.221Z,-0.41
2023-01-19T15:36:45.839Z,-0.59
2023-01-19T15:39:12.482Z,-0.64
2023-01-19T15:41:39.528Z,-0.58
2023-01-19T15:44:07.135Z,-0.79
2023-01-19T15:46:33.790Z,-0.78
2023-01-19T15:49:00.478Z,-0.71
2023-01-19T15:51:27.660Z,-0.51
2023-01-19T15:53:54.459Z,-0.69
2023-01-19T15:56:24.727Z,-0.57
2023-01-19T15:58:52.079Z,-0.78
2023-01-19T16:01:20.421Z,-0.66
2023-01-19T16:03:47.213Z,-0.57
2023-01-19T16:06:13.921Z,-0.50
2023-01-19T16:08:40.560Z,-0.75
2023-01-19T16:11:08.766Z,-0.75
2023-01-19T16:13:35.370Z,-0.74
2023-01-19T16:16:06.763Z,-0.62
2023-01-19T16:18:33.361Z,-0.60
2023-01-19T16:21:00.785Z,-0.52
2023-01-19T16:23:27.418Z,-0.71
2023-01-19T16:26:05.125Z,-0.57
2023-01-19T16:28:31.744Z,-0.45
2023-01-19T16:30:58.411Z,-0.48
2023-01-19T16:33:25.168Z,-0.45
2023-01-19T16:35:51.965Z,-0.40
2023-01-19T16:38:18.925Z,-0.43
2023-01-19T16:40:45.787Z,-0.60
2023-01-19T16:43:13.030Z,-0.52
2023-01-19T16:46:00.131Z,-0.70
2023-01-19T16:48:27.080Z,-0.60
2023-01-19T16:51:04.848Z,-0.64
2023-01-19T16:53:32.366Z,-0.59
2023-01-19T16:55:59.044Z,-0.61
2023-01-19T16:58:25.676Z,-0.60
2023-01-19T17:00:52.364Z,-0.38
2023-01-19T17:03:19.092Z,-0.55
2023-01-19T17:05:52.285Z,-0.48
2023-01-19T17:08:19.872Z,-0.52
2023-01-19T17:10:47.427Z,-0.38
2023-01-19T17:13:14.097Z,-0.25
2023-01-19T17:15:40.861Z,-0.45
2023-01-19T17:18:07.671Z,-0.48
2023-01-19T17:20:34.265Z,-0.34
2023-01-19T17:23:00.927Z,-0.32
2023-01-19T17:25:27.543Z,-0.37
2023-01-19T17:27:54.162Z,-0.30
2023-01-19T17:30:21.055Z,-0.34
2023-01-19T17:32:47.765Z,-0.26
2023-01-19T17:35:14.376Z,-0.14
2023-01-19T17:37:40.981Z,-0.29
2023-01-19T17:40:08.196Z,-0.22
2023-01-19T17:42:39.313Z,-0.37
2023-01-19T17:45:06.513Z,-0.17
2023-01-19T17:47:33.123Z,0.12
2023-01-19T17:49:59.896Z,-0.04
2023-01-19T17:52:26.652Z,0.01
2023-01-19T17:54:53.466Z,0.13
2023-01-19T17:57:20.084Z,0.02
2023-01-19T17:59:47.850Z,-0.29
2023-01-19T18:02:14.640Z,-0.33
2023-01-19T18:04:41.423Z,-0.34
2023-01-19T18:07:08.091Z,-0.22
2023-01-19T18:09:34.701Z,-0.12
2023-01-19T18:12:01.333Z,-0.25
2023-01-19T18:14:27.960Z,-0.13
2023-01-19T18:16:54.784Z,-0.12
2023-01-19T18:19:22.460Z,-0.16
2023-01-19T18:21:49.066Z,-0.10
2023-01-19T18:24:15.715Z,-0.28
2023-01-19T18:26:42.707Z,-0.25
2023-01-19T18:29:09.485Z,-0.22
2023-01-19T18:31:36.241Z,-0.32
2023-01-19T18:34:02.933Z,-0.37
2023-01-19T18:36:32.036Z,-0.38
2023-01-19T18:38:58.745Z,-0.42
2023-01-19T18:41:25.398Z,-0.09
2023-01-19T18:43:53.573Z,-0.43
2023-01-19T18:46:21.410Z,-0.37
2023-01-19T18:48:48.055Z,-0.28
2023-01-19T18:51:15.016Z,0.03
2023-01-19T18:53:41.889Z,0.08
2023-01-19T18:56:10.257Z,-0.34
2023-01-19T18:58:37.464Z,-0.16
2023-01-19T19:01:04.263Z,-0.19
2023-01-19T19:03:30.962Z,-0.28
2023-01-19T19:06:01.587Z,-0.17
2023-01-19T19:08:28.253Z,0.10
2023-01-19T19:10:54.932Z,-0.08
2023-01-19T19:13:21.963Z,-0.29
2023-01-19T19:15:48.627Z,-0.37
2023-01-19T19:18:16.312Z,-0.17
2023-01-19T19:20:43.474Z,0.03
2023-01-19T19:23:10.770Z,0.23
2023-01-19T19:25:37.495Z,-0.18
2023-01-19T19:28:04.319Z,-0.06
2023-01-19T19:30:32.518Z,0.06
2023-01-19T19:32:59.857Z,0.04
2023-01-19T19:35:26.530Z,-0.16
2023-01-19T19:37:57.463Z,-0.17
2023-01-19T19:40:25.331Z,0.05
2023-01-19T19:42:52.056Z,-0.28
2023-01-19T19:45:19.409Z,-0.10
2023-01-19T19:47:46.064Z,0.04
2023-01-19T19:50:12.962Z,-0.16
2023-01-19T19:52:42.952Z,0.04
2023-01-19T19:55:09.998Z,0.14
2023-01-19T19:57:36.712Z,0.13
2023-01-19T20:00:05.150Z,0.13
2023-01-19T20:02:36.643Z,-0.02
2023-01-19T20:05:03.766Z,0.31
2023-01-19T20:07:30.630Z,0.22
2023-01-19T20:09:57.242Z,0.09
2023-01-19T20:12:23.879Z,-0.45
2023-01-19T20:14:50.463Z,-0.49
2023-01-19T20:17:17.208Z,-0.43
2023-01-19T20:19:45.606Z,-0.16
2023-01-19T20:22:12.472Z,-0.27
2023-01-19T20:24:39.174Z,-0.32
2023-01-19T20:27:05.808Z,-0.27
2023-01-19T20:29:32.437Z,-0.58
2023-01-19T20:31:59.118Z,-0.27
2023-01-19T20:34:28.301Z,-0.16
2023-01-19T20:36:55.058Z,-0.19
2023-01-19T20:39:22.049Z,-0.40
2023-01-19T20:41:51.090Z,-0.14
2023-01-19T20:44:23.599Z,-0.23
2023-01-19T20:46:50.406Z,-0.27
2023-01-19T20:49:17.090Z,-0.39
2023-01-19T20:51:46.106Z,-0.30
2023-01-19T20:54:16.849Z,-0.09
2023-01-19T20:56:43.677Z,-0.21
2023-01-19T20:59:10.686Z,0.13
2023-01-19T21:01:37.752Z,-0.17
2023-01-19T21:04:04.642Z,0.07
2023-01-19T21:06:31.357Z,0.25
2023-01-19T21:08:58.064Z,0.18
2023-01-19T21:11:24.899Z,-0.21
2023-01-19T21:13:55.559Z,-0.19
2023-01-19T21:16:26.399Z,-0.10
2023-01-19T21:18:53.129Z,-0.12
2023-01-19T21:21:29.762Z,0.20
2023-01-19T21:23:58.536Z,-0.45
2023-01-19T21:26:25.294Z,-0.18
2023-01-19T21:28:51.977Z,0.20
2023-01-19T21:31:18.978Z,0.15
2023-01-19T21:33:45.675Z,-0.18
2023-01-19T21:36:12.346Z,0.20
2023-01-19T21:38:39.154Z,0.30
2023-01-19T21:41:11.046Z,0.00
2023-01-19T21:43:39.021Z,0.13
2023-01-19T21:46:13.800Z,0.24
2023-01-19T21:48:41.396Z,-0.01
2023-01-19T21:51:08.075Z,-0.17
2023-01-19T21:53:34.709Z,0.04
2023-01-19T21:56:01.365Z,-0.49
2023-01-19T21:58:28.103Z,-0.41
2023-01-19T22:01:01.754Z,-0.20
2023-01-19T22:03:28.765Z,0.06
2023-01-19T22:05:55.971Z,-0.02
2023-01-19T22:08:23.566Z,0.39
2023-01-19T22:10:50.162Z,0.39
2023-01-19T22:13:16.763Z,0.13
2023-01-19T22:15:43.367Z,0.16
2023-01-19T22:18:10.395Z,-0.03
2023-01-19T22:20:37.011Z,0.02
2023-01-19T22:23:03.683Z,0.15
2023-01-19T22:25:32.573Z,0.08
2023-01-19T22:27:59.368Z,-0.03
2023-01-19T22:30:26.143Z,0.41
2023-01-19T22:32:53.181Z,0.08
2023-01-19T22:35:21.252Z,0.02
2023-01-19T22:37:48.037Z,0.15
2023-01-19T22:40:14.715Z,0.18
2023-01-19T22:42:45.235Z,-0.22
2023-01-19T22:45:12.044Z,0.15
2023-01-19T22:47:38.914Z,-0.28
2023-01-19T22:50:05.991Z,-0.05
2023-01-19T22:52:32.624Z,-0.04
2023-01-19T22:54:59.994Z,0.12
2023-01-19T22:57:26.612Z,0.20
2023-01-19T22:59:53.187Z,0.24
2023-01-19T23:02:21.070Z,-0.07
2023-01-19T23:04:47.796Z,0.12
2023-01-19T23:07:14.428Z,0.01
2023-01-19T23:09:41.010Z,-0.16
2023-01-19T23:12:07.651Z,0.09
2023-01-19T23:14:34.668Z,0.19
2023-01-19T23:17:01.328Z,0.10
2023-01-19T23:19:27.921Z,0.37
2023-01-19T23:21:54.537Z,0.51
2023-01-19T23:24:21.296Z,0.55
2023-01-19T23:26:49.611Z,0.59
2023-01-19T23:29:16.500Z,0.22
2023-01-19T23:31:44.801Z,0.49
2023-01-19T23:34:12.317Z,0.32
2023-01-19T23:36:39.768Z,0.37
2023-01-19T23:39:19.928Z,0.16
2023-01-19T23:41:46.810Z,0.48
2023-01-19T23:44:13.533Z,-0.01
2023-01-19T23:46:40.153Z,0.08
2023-01-19T23:49:06.749Z,0.27
2023-01-19T23:51:33.434Z,0.57
2023-01-19T23:54:00.217Z,0.45
2023-01-19T23:56:31.071Z,0.61
2023-01-19T23:59:05.714Z,0.53
